createdAt,value
2022-11-02T00:09:42.206Z,98951.66
2022-11-02T00:19:46.291Z,98956.31
2022-11-02T00:29:50.117Z,98959.58
2022-11-02T00:39:53.517Z,98959.76
2022-11-02T00:49:57.498Z,98961.86
2022-11-02T01:00:00.614Z,98959.76
2022-11-02T01:10:03.444Z,98959.45
2022-11-02T01:20:09.235Z,98960.98
2022-11-02T01:30:14.141Z,98965.11
2022-11-02T01:40:17.762Z,98962.88
2022-11-02T01:50:23.797Z,98964.23
2022-11-02T02:00:27.493Z,98975.45
2022-11-02T02:10:31.196Z,98982.31
2022-11-02T02:20:47.332Z,98981.87
2022-11-02T02:30:57.854Z,98980.91
2022-11-02T02:41:04.467Z,98982.72
2022-11-02T02:51:12.468Z,98986.94
2022-11-02T03:01:18.902Z,98994.02
2022-11-02T03:11:23.572Z,98994.43
2022-11-02T03:21:26.594Z,98990.40
2022-11-02T03:31:34.562Z,98999.55
2022-11-02T03:41:42.084Z,99004.80
2022-11-02T03:51:47.699Z,99011.77
2022-11-02T04:01:52.711Z,99009.50
2022-11-02T04:12:14.675Z,99011.16
2022-11-02T04:22:36.931Z,99022.55
2022-11-02T04:32:59.582Z,99033.76
2022-11-02T04:43:03.154Z,99039.10
2022-11-02T04:53:06.892Z,99037.98
2022-11-02T05:03:12.448Z,99037.06
2022-11-02T05:13:16.484Z,99038.49
2022-11-02T05:23:20.939Z,99045.16
2022-11-02T05:33:30.277Z,99042.14
2022-11-02T05:43:33.416Z,99049.20
2022-11-02T05:53:36.710Z,99051.54
2022-11-02T06:03:40.323Z,99051.73
2022-11-02T06:13:43.956Z,99054.80
2022-11-02T06:23:47.415Z,99071.59
2022-11-02T06:33:51.035Z,99073.30
2022-11-02T06:43:54.157Z,99075.31
2022-11-02T06:53:58.044Z,99073.28
2022-11-02T07:04:01.769Z,99073.64
2022-11-02T07:14:05.457Z,99068.45
2022-11-02T07:24:08.910Z,99072.20
2022-11-02T07:34:16.893Z,99077.05
2022-11-02T07:44:21.249Z,99078.08
2022-11-02T07:54:24.838Z,99071.71
2022-11-02T08:04:28.534Z,99073.10
2022-11-02T08:14:32.062Z,99064.59
2022-11-02T08:24:35.745Z,99057.67
2022-11-02T08:34:39.265Z,99068.99
2022-11-02T08:44:42.948Z,99070.92
2022-11-02T08:54:46.800Z,99075.27
2022-11-02T09:04:50.377Z,99076.03
2022-11-02T09:14:53.895Z,99075.31
2022-11-02T09:24:57.375Z,99062.52
2022-11-02T09:35:00.355Z,99065.28
2022-11-02T09:45:05.915Z,99065.30
2022-11-02T09:55:10.940Z,99059.60
2022-11-02T10:05:20.602Z,99059.17
2022-11-02T10:15:39.665Z,99058.88
2022-11-02T10:25:44.150Z,99063.88
2022-11-02T10:36:19.204Z,99071.98
2022-11-02T10:46:29.824Z,99062.64
2022-11-02T10:56:33.438Z,99053.39
2022-11-02T11:06:38.909Z,99048.08
2022-11-02T11:16:45.776Z,99039.79
2022-11-02T11:27:06.199Z,99037.79
2022-11-02T11:37:11.354Z,99039.92
2022-11-02T11:47:15.857Z,99032.77
2022-11-02T11:57:23.421Z,99031.36
2022-11-02T12:07:42.164Z,99017.27
2022-11-02T12:17:47.575Z,99023.73
2022-11-02T12:27:51.530Z,99016.36
2022-11-02T12:38:01.428Z,99012.48
2022-11-02T12:48:05.343Z,99007.81
2022-11-02T12:58:13.420Z,99005.48
2022-11-02T13:08:16.263Z,99006.62
2022-11-02T13:18:24.316Z,99009.23
2022-11-02T13:28:28.278Z,99010.39
2022-11-02T13:38:34.910Z,99022.23
2022-11-02T13:58:56.826Z,99025.89
2022-11-02T14:09:05.072Z,99031.77
2022-11-02T14:19:22.056Z,99030.80
2022-11-02T14:29:48.474Z,99035.17
2022-11-02T14:39:58.600Z,99034.61
2022-11-02T14:50:01.230Z,99038.94
2022-11-02T15:00:18.219Z,99048.90
2022-11-02T15:10:39.136Z,99050.71
2022-11-02T15:20:46.194Z,99061.13
2022-11-02T15:30:49.212Z,99071.43
2022-11-02T15:41:06.084Z,99069.45
2022-11-02T15:51:11.424Z,99069.64
2022-11-02T16:01:19.969Z,99083.30
2022-11-02T16:11:23.919Z,99094.48
2022-11-02T16:21:28.371Z,99108.02
2022-11-02T16:31:32.163Z,99106.77
2022-11-02T16:41:36.691Z,99112.15
2022-11-02T16:51:40.745Z,99122.80
2022-11-02T17:01:45.067Z,99135.11
2022-11-02T17:11:49.975Z,99143.96
2022-11-02T17:22:10.579Z,99146.80
2022-11-02T17:32:15.747Z,99146.60
2022-11-02T17:42:37.935Z,99153.48
2022-11-02T17:52:43.962Z,99165.95
2022-11-02T18:02:49.641Z,99169.02
2022-11-02T18:12:53.358Z,99163.50
2022-11-02T18:22:57.693Z,99162.06
2022-11-02T18:33:01.538Z,99163.02
2022-11-02T18:43:08.186Z,99172.39
2022-11-02T18:53:12.130Z,99181.52
2022-11-02T19:03:17.670Z,99203.42
2022-11-02T19:13:20.935Z,99214.60
2022-11-02T19:23:24.469Z,99223.95
2022-11-02T19:33:29.010Z,99232.27
2022-11-02T19:43:33.029Z,99245.52
2022-11-02T19:53:37.552Z,99249.81
2022-11-02T20:03:41.076Z,99244.85
2022-11-02T20:13:46.550Z,99248.39
2022-11-02T20:23:50.132Z,99251.23
2022-11-02T20:33:54.118Z,99253.15
2022-11-02T20:43:57.814Z,99250.27
2022-11-02T20:54:02.695Z,99244.27
2022-11-02T21:04:05.934Z,99241.51
2022-11-02T21:14:09.001Z,99248.01
2022-11-02T21:24:13.119Z,99252.06
2022-11-02T21:34:16.841Z,99257.05
2022-11-02T21:44:20.477Z,99259.10
2022-11-02T21:54:24.040Z,99262.56
2022-11-02T22:04:27.840Z,99263.10
2022-11-02T22:14:31.310Z,99265.77
2022-11-02T22:24:34.801Z,99268.40
2022-11-02T22:34:38.311Z,99272.83
2022-11-02T22:44:41.967Z,99284.82
2022-11-02T22:54:45.405Z,99286.66
2022-11-02T23:04:48.891Z,99289.30
2022-11-02T23:14:52.352Z,99294.09
2022-11-02T23:25:15.391Z,99297.01
2022-11-02T23:35:36.592Z,99301.17
2022-11-02T23:45:40.178Z,99309.02
2022-11-02T23:56:01.805Z,99316.54
